Disclaimer

Please do not use the information listed here in-flight or in-navigation, as they are not provided to us by the airports but are provided by volunteers, so they might be outdated.

Search


Regions


Airport information page

Radio informations:
TOZEUR TWR - 118.2 MHz
TOZEUR APP - 120.7 MHz

Airport informations:
Latitude: 33° 56' 23.00" N
Longitude: 008° 06' 38.00" E
Elevation: 287 feet - 87 meters
Operating hours: Remarks
Operating agency: Civil government, landing fees and diplomatic clearance may be required
Timezone: UTC+1(+2DT) - Dates notified by NOTAM
Fuel: Jet A1, without icing nhibitor.

Runway information:
09/27 - 10581 x 148 feet< - >3225 x 45 meters

Recent METARs:
DTTZ 130300Z 06007KT 8000 FEW026 18/16 Q1022 NOSIG
DTTZ 130300Z 06007KT 8000 FEW026 18/16 Q1022 NOSIG
DTTZ 130400Z 05007KT 8000 FEW026 18/16 Q1022 NOSIG

Airport on the map: